createdAt,value
2018-01-27T00:00:19.245Z,19.8
2018-01-27T00:02:19.004Z,21.4
2018-01-27T00:04:18.754Z,18.8
2018-01-27T00:06:19.370Z,16.7
2018-01-27T00:08:19.114Z,25.8
2018-01-27T00:10:19.337Z,22.3
2018-01-27T00:12:19.048Z,21.3
2018-01-27T00:14:18.797Z,21.3
2018-01-27T00:16:19.267Z,23.3
2018-01-27T00:18:19.080Z,22.4
2018-01-27T00:20:18.832Z,19.8
2018-01-27T00:22:19.579Z,21.7
2018-01-27T00:24:19.312Z,24.5
2018-01-27T00:26:19.350Z,25.1
2018-01-27T00:28:19.091Z,28.2
2018-01-27T00:30:18.831Z,28.7
2018-01-27T00:32:19.572Z,23.8
2018-01-27T00:34:19.311Z,26.4
2018-01-27T00:36:18.837Z,21.9
2018-01-27T00:38:19.578Z,24.2
2018-01-27T00:40:18.778Z,25.1
2018-01-27T00:42:19.525Z,22
2018-01-27T00:44:19.229Z,22.5
2018-01-27T00:46:19.245Z,19.8
2018-01-27T00:48:19.021Z,23.5
2018-01-27T00:50:18.884Z,17.5
2018-01-27T00:52:19.667Z,19.8
2018-01-27T00:54:19.448Z,18.7
2018-01-27T00:56:18.933Z,22.7
2018-01-27T00:58:19.667Z,20.5
2018-01-27T01:00:19.387Z,26.8
2018-01-27T01:02:19.114Z,25.4
2018-01-27T01:04:18.868Z,24.5
2018-01-27T01:06:19.329Z,20.5
2018-01-27T01:08:19.087Z,18.3
2018-01-27T01:10:19.247Z,20.5
2018-01-27T01:12:18.989Z,21.4
2018-01-27T01:14:18.709Z,21.8
2018-01-27T01:16:19.258Z,25.6
2018-01-27T01:18:19.064Z,28.2
2018-01-27T01:20:18.814Z,32.4
2018-01-27T01:22:19.532Z,19.8
2018-01-27T01:24:19.272Z,32.5
2018-01-27T01:26:18.912Z,21
2018-01-27T01:28:19.619Z,31.3
2018-01-27T01:30:19.362Z,23.4
2018-01-27T01:32:19.111Z,27.3
2018-01-27T01:34:18.845Z,22.3
2018-01-27T01:36:19.338Z,25.4
2018-01-27T01:38:19.086Z,34.4
2018-01-27T01:40:19.338Z,23.8
2018-01-27T01:42:19.058Z,41
2018-01-27T01:44:18.779Z,22
2018-01-27T01:46:19.248Z,25.4
2018-01-27T01:48:18.979Z,22.7
2018-01-27T01:50:18.736Z,21.9
2018-01-27T01:52:19.453Z,28.1
2018-01-27T01:54:19.176Z,20.9
2018-01-27T01:56:18.776Z,24.2
2018-01-27T01:58:19.559Z,24.2
2018-01-27T02:00:19.328Z,24.6
2018-01-27T02:02:19.060Z,28
2018-01-27T02:04:18.815Z,27.7
2018-01-27T02:06:18.897Z,28.6
2018-01-27T02:08:19.659Z,25.5
2018-01-27T02:10:18.872Z,23
2018-01-27T02:12:19.616Z,23.3
2018-01-27T02:14:19.394Z,29.3
2018-01-27T02:16:19.524Z,31.5
2018-01-27T02:18:19.320Z,22.8
2018-01-27T02:20:19.142Z,24.4
2018-01-27T02:22:19.066Z,32.1
2018-01-27T02:24:18.815Z,32.3
2018-01-27T02:26:19.351Z,33.4
2018-01-27T02:28:19.095Z,22.2
2018-01-27T02:30:18.903Z,21.7
2018-01-27T02:32:19.544Z,28.7
2018-01-27T02:34:19.307Z,21.5
2018-01-27T02:36:19.355Z,26.4
2018-01-27T02:38:19.100Z,28.6
2018-01-27T02:40:19.295Z,24
2018-01-27T02:42:19.033Z,39.4
2018-01-27T02:44:18.770Z,28.4
2018-01-27T02:46:18.857Z,21.6
2018-01-27T02:48:19.604Z,23.2
2018-01-27T02:50:19.339Z,22.8
2018-01-27T02:52:19.064Z,37.1
2018-01-27T02:54:18.798Z,28.4
2018-01-27T02:56:19.309Z,27.8
2018-01-27T02:58:19.062Z,27.3
2018-01-27T03:00:18.825Z,27.2
2018-01-27T03:02:18.836Z,32.2
2018-01-27T03:04:19.565Z,30.6
2018-01-27T03:06:19.552Z,25.1
2018-01-27T03:08:19.312Z,27.6
2018-01-27T03:10:19.497Z,33.9
2018-01-27T03:12:19.227Z,31
2018-01-27T03:14:18.961Z,33.4
2018-01-27T03:16:19.443Z,23.7
2018-01-27T03:18:19.220Z,25.9
2018-01-27T03:20:18.983Z,31.4
2018-01-27T03:22:18.733Z,40
2018-01-27T03:24:19.446Z,26.9
2018-01-27T03:26:19.442Z,26.6
2018-01-27T03:28:19.157Z,26.3
2018-01-27T03:30:18.893Z,27.6
2018-01-27T03:32:19.653Z,29.4
2018-01-27T03:34:19.397Z,36
2018-01-27T03:36:19.013Z,31.6
2018-01-27T03:38:18.754Z,32.4
2018-01-27T03:40:18.918Z,27.4
2018-01-27T03:42:19.639Z,28.4
2018-01-27T03:44:19.378Z,33.2
2018-01-27T03:46:19.512Z,23.4
2018-01-27T03:48:19.263Z,26.2
2018-01-27T03:50:19.019Z,28.8
2018-01-27T03:52:18.742Z,31
2018-01-27T03:54:19.483Z,30.9
2018-01-27T03:56:19.010Z,32.7
2018-01-27T03:58:18.760Z,31.5
2018-01-27T04:00:19.649Z,32.5
2018-01-27T04:02:19.377Z,28.2
2018-01-27T04:04:19.136Z,27.6
2018-01-27T04:06:19.157Z,28.3
2018-01-27T04:08:18.893Z,26.5
2018-01-27T04:10:19.107Z,38.9
2018-01-27T04:12:18.826Z,30
2018-01-27T04:14:19.543Z,26.3
2018-01-27T04:16:19.075Z,32.5
2018-01-27T04:18:18.910Z,33.9
2018-01-27T04:20:19.669Z,34.1
2018-01-27T04:22:19.420Z,35
2018-01-27T04:24:19.148Z,22.6
2018-01-27T04:26:19.171Z,33
2018-01-27T04:28:18.884Z,31.6
2018-01-27T04:30:19.701Z,20.3
2018-01-27T04:32:18.765Z,31.6
2018-01-27T04:34:19.481Z,28.5
2018-01-27T04:36:19.554Z,26.7
2018-01-27T04:38:19.273Z,22.2
2018-01-27T04:40:19.489Z,25.3
2018-01-27T04:42:19.238Z,25
2018-01-27T04:44:18.959Z,31.3
2018-01-27T04:46:18.963Z,31.1
2018-01-27T04:48:18.719Z,31.5
2018-01-27T04:50:19.475Z,22.4
2018-01-27T04:52:19.225Z,21.8
2018-01-27T04:54:18.960Z,26.8
2018-01-27T04:56:18.949Z,26.3
2018-01-27T04:58:18.738Z,32.4
2018-01-27T05:00:19.617Z,33.4
2018-01-27T05:02:19.348Z,26.3
2018-01-27T05:04:19.111Z,26.1
2018-01-27T05:06:19.602Z,25.8
2018-01-27T05:08:19.321Z,25.9
2018-01-27T05:10:19.580Z,27.9
2018-01-27T05:12:19.336Z,27
2018-01-27T05:14:19.108Z,34.7
2018-01-27T05:16:19.660Z,30.2
2018-01-27T05:18:19.552Z,33.6
2018-01-27T05:20:19.299Z,27.4
2018-01-27T05:22:19.049Z,31.2
2018-01-27T05:24:18.845Z,26.2
2018-01-27T05:26:19.340Z,29.4
2018-01-27T05:28:19.052Z,26.1
2018-01-27T05:30:18.792Z,31.6
2018-01-27T05:32:19.525Z,24.1
2018-01-27T05:34:19.284Z,29.4
2018-01-27T05:36:19.097Z,25.8
2018-01-27T05:38:18.836Z,29
2018-01-27T05:40:19.092Z,24.6
2018-01-27T05:42:18.854Z,26.7
2018-01-27T05:44:19.600Z,27.4
2018-01-27T05:46:19.080Z,29.1
2018-01-27T05:48:18.812Z,23.9
2018-01-27T05:50:19.581Z,26.5
2018-01-27T05:52:19.336Z,33.4
2018-01-27T05:54:19.091Z,23.1
2018-01-27T05:56:19.025Z,28.7
2018-01-27T05:58:18.776Z,28.3
2018-01-27T06:00:19.563Z,25.5
2018-01-27T06:02:19.306Z,28.6
2018-01-27T06:04:19.032Z,29.8
2018-01-27T06:06:19.037Z,25.5
2018-01-27T06:08:18.784Z,19.1
2018-01-27T06:10:18.993Z,19.9
2018-01-27T06:12:18.774Z,21
2018-01-27T06:14:19.526Z,28.6
2018-01-27T06:16:18.983Z,26
2018-01-27T06:18:18.846Z,24.1
2018-01-27T06:20:19.585Z,23
2018-01-27T06:22:19.337Z,23.1
2018-01-27T06:24:19.134Z,25.8
2018-01-27T06:26:18.694Z,31.1
2018-01-27T06:28:19.415Z,22
2018-01-27T06:30:19.172Z,24.1
2018-01-27T06:32:18.909Z,21
2018-01-27T06:34:19.631Z,18.6
2018-01-27T06:36:18.747Z,26.7
2018-01-27T06:38:19.522Z,21.4
2018-01-27T06:40:18.761Z,20.3
2018-01-27T06:42:19.501Z,21.9
2018-01-27T06:44:19.255Z,31.2
2018-01-27T06:46:18.866Z,20.2
2018-01-27T06:48:19.586Z,32.1
2018-01-27T06:50:19.310Z,22.9
2018-01-27T06:52:19.070Z,25.1
2018-01-27T06:54:18.824Z,27
2018-01-27T06:56:19.302Z,23.8
2018-01-27T06:58:19.062Z,19.7
2018-01-27T07:00:18.817Z,23.6
2018-01-27T07:02:19.560Z,17.2
2018-01-27T07:04:19.317Z,38.8
2018-01-27T07:06:19.425Z,23.8
2018-01-27T07:08:19.158Z,20.1
2018-01-27T07:10:19.376Z,28.1
2018-01-27T07:12:19.110Z,18.2
2018-01-27T07:14:18.905Z,20.8
2018-01-27T07:16:18.975Z,23.4
2018-01-27T07:18:18.791Z,23.6
2018-01-27T07:20:19.638Z,14.6
2018-01-27T07:22:19.373Z,26
2018-01-27T07:24:19.103Z,22.6
2018-01-27T07:26:18.814Z,21.1
2018-01-27T07:28:19.549Z,30.8
2018-01-27T07:30:19.272Z,25.3
2018-01-27T07:32:19.061Z,14.2
2018-01-27T07:34:18.777Z,31.2
2018-01-27T07:36:19.217Z,20.5
2018-01-27T07:38:18.985Z,20.7
2018-01-27T07:40:19.317Z,17.1
2018-01-27T07:42:19.076Z,32.4
2018-01-27T07:44:18.836Z,18.7
2018-01-27T07:46:18.791Z,23.6
2018-01-27T07:48:19.513Z,18.4
2018-01-27T07:50:19.260Z,25.8
2018-01-27T07:52:18.990Z,20
2018-01-27T07:54:18.730Z,30.2
2018-01-27T07:56:19.337Z,23.4
2018-01-27T07:58:19.120Z,23.1
2018-01-27T08:00:18.842Z,24.9
2018-01-27T08:02:19.621Z,19.8
2018-01-27T08:04:19.379Z,15.6
2018-01-27T08:06:19.496Z,19.9
2018-01-27T08:08:19.278Z,18.5
2018-01-27T08:10:19.525Z,16.2
2018-01-27T08:12:19.245Z,20
2018-01-27T08:14:18.994Z,17
2018-01-27T08:16:19.203Z,22.2
2018-01-27T08:18:19.045Z,15.9
2018-01-27T08:20:18.820Z,25.7
2018-01-27T08:22:19.543Z,19.5
2018-01-27T08:24:19.267Z,15.5
2018-01-27T08:26:19.438Z,21.9
2018-01-27T08:28:19.207Z,15.5
2018-01-27T08:30:18.980Z,20.6
2018-01-27T08:32:18.684Z,24.1
2018-01-27T08:34:19.423Z,17.5
2018-01-27T08:36:19.475Z,18.4
2018-01-27T08:38:19.191Z,17.9
2018-01-27T08:40:19.428Z,22
2018-01-27T08:42:19.187Z,14.7
2018-01-27T08:44:18.908Z,18.6
2018-01-27T08:46:19.539Z,17
2018-01-27T08:48:19.307Z,21.4
2018-01-27T08:50:19.086Z,15.4
2018-01-27T08:52:18.808Z,33.5
2018-01-27T08:54:19.569Z,20.8
2018-01-27T08:56:19.067Z,32.7
2018-01-27T08:58:18.785Z,14.5
2018-01-27T09:00:19.498Z,10.6
2018-01-27T09:02:19.243Z,19.8
2018-01-27T09:04:18.985Z,17.3
2018-01-27T09:06:19.058Z,18.8
2018-01-27T09:08:18.792Z,14.9
2018-01-27T09:10:19.005Z,21.1
2018-01-27T09:12:18.800Z,15
2018-01-27T09:14:19.530Z,23.1
2018-01-27T09:16:18.995Z,19
2018-01-27T09:18:18.827Z,18.5
2018-01-27T09:20:19.618Z,19.5
2018-01-27T09:22:19.329Z,15.1
2018-01-27T09:24:19.096Z,18.2
2018-01-27T09:26:19.101Z,21.2
2018-01-27T09:28:18.829Z,16.7
2018-01-27T09:30:19.578Z,16.3
2018-01-27T09:32:19.301Z,14.9
2018-01-27T09:34:19.052Z,16.6
2018-01-27T09:36:19.566Z,21.2
2018-01-27T09:38:19.281Z,12.5
2018-01-27T09:40:19.474Z,14.4
2018-01-27T09:42:19.220Z,12.9
2018-01-27T09:44:18.940Z,16
2018-01-27T09:46:19.412Z,15.6
2018-01-27T09:48:19.176Z,14.9
2018-01-27T09:50:18.928Z,13.8
2018-01-27T09:52:18.661Z,13.9
2018-01-27T09:54:19.429Z,24.1
2018-01-27T09:56:18.898Z,17.1
2018-01-27T09:58:19.641Z,13.9
2018-01-27T10:00:19.395Z,18.6
2018-01-27T10:02:19.150Z,16
2018-01-27T10:04:18.880Z,15.1
2018-01-27T10:06:19.442Z,18.7
2018-01-27T10:08:19.189Z,14.9
2018-01-27T10:10:19.485Z,13.7
2018-01-27T10:12:19.242Z,23.9
2018-01-27T10:14:18.973Z,14.7
2018-01-27T10:16:19.434Z,14.9
2018-01-27T10:18:19.297Z,12.9
2018-01-27T10:20:19.055Z,12.4
2018-01-27T10:22:18.791Z,13.9
2018-01-27T10:24:19.539Z,22.1
2018-01-27T10:26:19.034Z,16.1
2018-01-27T10:28:18.755Z,26.9
2018-01-27T10:30:19.486Z,20.6
2018-01-27T10:32:19.211Z,25.4
2018-01-27T10:34:19.264Z,15.5
2018-01-27T10:36:19.168Z,21.8
2018-01-27T10:38:18.900Z,19.6
2018-01-27T10:40:19.126Z,24.9
2018-01-27T10:42:18.896Z,24
2018-01-27T10:44:19.639Z,13.6
2018-01-27T10:46:19.136Z,19.7
2018-01-27T10:48:18.892Z,18.7
2018-01-27T10:50:19.607Z,28.5
2018-01-27T10:52:19.359Z,25.6
2018-01-27T10:54:19.108Z,26.8
2018-01-27T10:56:19.604Z,11.7
2018-01-27T10:58:19.335Z,19.8
2018-01-27T11:00:19.105Z,26.5
2018-01-27T11:02:18.729Z,33.3
2018-01-27T11:04:19.466Z,24.9
2018-01-27T11:06:19.517Z,23.8
2018-01-27T11:08:19.280Z,21.7
2018-01-27T11:10:19.486Z,15.5
2018-01-27T11:12:19.243Z,20.3
2018-01-27T11:14:18.970Z,14
2018-01-27T11:16:19.511Z,19
2018-01-27T11:18:19.331Z,22.9
2018-01-27T11:20:19.052Z,22.4
2018-01-27T11:22:18.793Z,23.3
2018-01-27T11:24:19.550Z,21.1
2018-01-27T11:26:19.002Z,20.3
2018-01-27T11:28:18.753Z,18.9
2018-01-27T11:30:19.514Z,23.7
2018-01-27T11:32:19.227Z,23
2018-01-27T11:34:18.978Z,25.9
2018-01-27T11:36:19.473Z,24.8
2018-01-27T11:38:19.227Z,19.3
2018-01-27T11:40:19.569Z,34.9
2018-01-27T11:42:19.336Z,22.3
2018-01-27T11:44:19.056Z,23.6
2018-01-27T11:46:19.601Z,18.9
2018-01-27T11:48:19.380Z,24
2018-01-27T11:50:19.109Z,14.7
2018-01-27T11:52:18.835Z,25.6
2018-01-27T11:54:19.608Z,28.3
2018-01-27T11:56:18.707Z,21.9
2018-01-27T11:58:19.423Z,27.9
2018-01-27T12:00:19.136Z,19.7
2018-01-27T12:02:18.864Z,20.3
2018-01-27T12:04:19.598Z,18.6
2018-01-27T12:06:18.673Z,27.4
2018-01-27T12:08:19.420Z,18.7
2018-01-27T12:10:19.813Z,27.9
2018-01-27T12:12:19.536Z,17.4
2018-01-27T12:14:19.264Z,15.7
2018-01-27T12:16:19.299Z,23.5
2018-01-27T12:18:19.109Z,21.9
2018-01-27T12:20:18.855Z,16.7
2018-01-27T12:22:19.635Z,16.7
2018-01-27T12:24:19.398Z,20.2
2018-01-27T12:26:19.469Z,20.8
2018-01-27T12:28:19.241Z,17.3
2018-01-27T12:30:18.982Z,21
2018-01-27T12:32:18.704Z,11.4
2018-01-27T12:34:19.469Z,16.3
2018-01-27T12:36:19.474Z,13.5
2018-01-27T12:38:19.188Z,13.2
2018-01-27T12:40:19.394Z,16
2018-01-27T12:42:19.144Z,17.5
2018-01-27T12:44:18.912Z,23.6
2018-01-27T12:46:19.393Z,19.8
2018-01-27T12:48:19.112Z,18.6
2018-01-27T12:50:18.871Z,15.4
2018-01-27T12:52:19.584Z,16
2018-01-27T12:54:19.313Z,10.9
2018-01-27T12:56:18.836Z,11.5
2018-01-27T12:58:19.611Z,11.6
2018-01-27T13:00:19.341Z,27.9
2018-01-27T13:02:19.080Z,14.7
2018-01-27T13:04:18.832Z,7.6
2018-01-27T13:06:18.916Z,22
2018-01-27T13:08:19.698Z,15.6
2018-01-27T13:10:18.938Z,15.5
2018-01-27T13:12:18.660Z,5.7
2018-01-27T13:14:19.457Z,11
2018-01-27T13:16:19.003Z,14
2018-01-27T13:18:18.821Z,12.5
2018-01-27T13:20:19.643Z,11.9
2018-01-27T13:22:19.390Z,17.8
2018-01-27T13:24:19.164Z,10
2018-01-27T13:26:19.725Z,20.6
2018-01-27T13:28:19.484Z,14.6
2018-01-27T13:30:19.245Z,20
2018-01-27T13:32:19.011Z,13
2018-01-27T13:34:18.770Z,9.9
2018-01-27T13:36:18.804Z,10.7
2018-01-27T13:38:19.612Z,8.6
2018-01-27T13:40:18.805Z,11.2
2018-01-27T13:42:19.435Z,18.5
2018-01-27T13:44:19.193Z,12.2
2018-01-27T13:46:18.768Z,22.1
2018-01-27T13:48:19.493Z,14.9
2018-01-27T13:50:19.231Z,10
2018-01-27T13:52:18.974Z,9.6
2018-01-27T13:54:18.706Z,17.4
2018-01-27T13:56:19.230Z,15.7
2018-01-27T13:58:18.972Z,14.8
2018-01-27T14:00:18.786Z,7.3
2018-01-27T14:02:19.533Z,14.5
2018-01-27T14:04:19.270Z,12.3
2018-01-27T14:06:18.815Z,19
2018-01-27T14:08:19.589Z,16.6
2018-01-27T14:10:18.796Z,21.5
2018-01-27T14:12:19.544Z,12.3
2018-01-27T14:14:19.341Z,16.2
2018-01-27T14:16:18.939Z,12.2
2018-01-27T14:18:18.769Z,9.4
2018-01-27T14:20:19.591Z,15.4
2018-01-27T14:22:18.769Z,15.9
2018-01-27T14:24:19.510Z,20.5
2018-01-27T14:26:19.558Z,9.9
2018-01-27T14:28:19.322Z,18.8
2018-01-27T14:30:19.079Z,15.9
2018-01-27T14:32:18.853Z,13.2
2018-01-27T14:34:19.582Z,12.9
2018-01-27T14:36:19.628Z,18.7
2018-01-27T14:38:19.398Z,18.4
2018-01-27T14:40:19.694Z,16.4
2018-01-27T14:42:19.421Z,14.8
2018-01-27T14:44:19.184Z,18.4
2018-01-27T14:46:19.227Z,17.3
2018-01-27T14:48:18.995Z,16.8
2018-01-27T14:50:18.801Z,21.8
2018-01-27T14:52:19.543Z,20.8
2018-01-27T14:54:19.285Z,20
2018-01-27T14:56:18.794Z,20.6
2018-01-27T14:58:19.551Z,20.5
2018-01-27T15:00:19.327Z,19.9
2018-01-27T15:02:19.097Z,15.3
2018-01-27T15:04:18.886Z,24.8
2018-01-27T15:06:19.424Z,26.8
2018-01-27T15:08:19.158Z,23.3
2018-01-27T15:10:19.425Z,20.5
2018-01-27T15:12:19.152Z,20.1
2018-01-27T15:14:18.892Z,19.7
2018-01-27T15:16:19.209Z,23
2018-01-27T15:18:19.029Z,24.2
2018-01-27T15:20:18.777Z,25.2
2018-01-27T15:22:19.491Z,26.8
2018-01-27T15:24:19.226Z,13
2018-01-27T15:26:18.707Z,24.6
2018-01-27T15:28:19.444Z,21.3
2018-01-27T15:30:19.184Z,22.9
2018-01-27T15:32:18.915Z,20.4
2018-01-27T15:34:19.648Z,19.7
2018-01-27T15:36:19.242Z,22.2
2018-01-27T15:38:19.030Z,20.2
2018-01-27T15:40:19.246Z,18.4
2018-01-27T15:42:18.998Z,16.7
2018-01-27T15:44:18.716Z,21.1
2018-01-27T15:46:19.214Z,19.4
2018-01-27T15:48:18.979Z,19
2018-01-27T15:50:18.748Z,20.3
2018-01-27T15:52:19.382Z,14
2018-01-27T15:54:19.144Z,12.4
2018-01-27T15:56:19.173Z,22.7
2018-01-27T15:58:18.955Z,22
2018-01-27T16:00:18.762Z,15.9
2018-01-27T16:02:19.511Z,20.8
2018-01-27T16:04:19.232Z,20.6
2018-01-27T16:06:18.709Z,27.1
2018-01-27T16:08:19.436Z,24.6
2018-01-27T16:10:19.635Z,20.5
2018-01-27T16:12:19.399Z,27
2018-01-27T16:14:19.131Z,22.1
2018-01-27T16:16:19.179Z,29.3
2018-01-27T16:18:19.019Z,18.6
2018-01-27T16:20:18.771Z,16.2
2018-01-27T16:22:19.523Z,25.4
2018-01-27T16:24:19.290Z,23.2
2018-01-27T16:26:18.778Z,27
2018-01-27T16:28:19.521Z,26.2
2018-01-27T16:30:19.249Z,15.4
2018-01-27T16:32:18.993Z,20.1
2018-01-27T16:34:18.731Z,24
2018-01-27T16:36:19.255Z,25.5
2018-01-27T16:38:19.003Z,27.4
2018-01-27T16:40:19.255Z,27.9
2018-01-27T16:42:19.005Z,27.2
2018-01-27T16:44:18.749Z,26.4
2018-01-27T16:46:18.766Z,35.7
2018-01-27T16:48:19.517Z,27.5
2018-01-27T16:50:19.270Z,25.8
2018-01-27T16:52:19.002Z,25.2
2018-01-27T16:54:18.752Z,29.5
2018-01-27T16:56:18.745Z,27.7
2018-01-27T16:58:19.474Z,36.1
2018-01-27T17:00:19.219Z,28.6
2018-01-27T17:02:18.938Z,17.9
2018-01-27T17:04:18.676Z,21.9
2018-01-27T17:06:19.155Z,28.6
2018-01-27T17:08:18.876Z,24.9
2018-01-27T17:10:19.080Z,21
2018-01-27T17:12:18.813Z,28.6
2018-01-27T17:14:19.596Z,31.2
2018-01-27T17:16:19.192Z,28.3
2018-01-27T17:18:19.017Z,23.5
2018-01-27T17:20:18.809Z,23
2018-01-27T17:22:19.531Z,27.7
2018-01-27T17:24:19.265Z,22.5
2018-01-27T17:26:19.300Z,22.2
2018-01-27T17:28:19.032Z,22.2
2018-01-27T17:30:18.788Z,20.2
2018-01-27T17:32:19.584Z,19.3
2018-01-27T17:34:19.319Z,26.1
2018-01-27T17:36:18.776Z,17.6
2018-01-27T17:38:19.568Z,20.2
2018-01-27T17:40:18.798Z,25.7
2018-01-27T17:42:19.581Z,27.3
2018-01-27T17:44:19.341Z,22
2018-01-27T17:46:18.837Z,26.9
2018-01-27T17:48:19.563Z,25.8
2018-01-27T17:50:19.303Z,24.2
2018-01-27T17:52:19.025Z,24.2
2018-01-27T17:54:18.768Z,28.3
2018-01-27T17:56:18.815Z,25
2018-01-27T17:58:19.575Z,30.4
2018-01-27T18:00:19.347Z,21.3
2018-01-27T18:02:19.115Z,21.6
2018-01-27T18:04:18.860Z,31.5
2018-01-27T18:06:19.473Z,30.2
2018-01-27T18:08:19.218Z,34
2018-01-27T18:10:19.448Z,29.5
2018-01-27T18:12:19.192Z,32.5
2018-01-27T18:14:18.960Z,27.5
2018-01-27T18:16:18.965Z,22.5
2018-01-27T18:18:19.081Z,27.5
2018-01-27T18:20:18.844Z,25.5
2018-01-27T18:22:19.586Z,33.4
2018-01-27T18:24:19.349Z,24.6
2018-01-27T18:26:19.380Z,37.3
2018-01-27T18:28:19.098Z,30.9
2018-01-27T18:30:18.838Z,30.9
2018-01-27T18:32:19.555Z,31.9
2018-01-27T18:34:19.303Z,31.8
2018-01-27T18:36:18.838Z,20.4
2018-01-27T18:38:19.570Z,29.5
2018-01-27T18:40:18.810Z,33.3
2018-01-27T18:42:19.584Z,29.2
2018-01-27T18:44:19.316Z,23.4
2018-01-27T18:46:18.814Z,22.2
2018-01-27T18:48:19.578Z,33.5
2018-01-27T18:50:19.339Z,28.4
2018-01-27T18:52:19.073Z,39.3
2018-01-27T18:54:18.845Z,22.9
2018-01-27T18:56:18.885Z,28.7
2018-01-27T18:58:19.638Z,41.4
2018-01-27T19:00:19.390Z,35.2
2018-01-27T19:02:19.155Z,25.7
2018-01-27T19:04:18.856Z,30.5
2018-01-27T19:06:18.958Z,32.6
2018-01-27T19:08:18.681Z,23.7
2018-01-27T19:10:18.947Z,22.9
2018-01-27T19:12:18.709Z,25.7
2018-01-27T19:14:19.444Z,27
2018-01-27T19:16:18.989Z,28.7
2018-01-27T19:18:18.825Z,28.9
2018-01-27T19:20:19.567Z,25.9
2018-01-27T19:22:19.337Z,39
2018-01-27T19:24:19.065Z,28.9
2018-01-27T19:26:19.588Z,35.7
2018-01-27T19:28:19.340Z,36.2
2018-01-27T19:30:19.082Z,24
2018-01-27T19:32:18.805Z,40.3
2018-01-27T19:34:19.560Z,38.2
2018-01-27T19:36:19.036Z,28.1
2018-01-27T19:38:18.770Z,28.4
2018-01-27T19:40:19.009Z,27.2
2018-01-27T19:42:19.467Z,30.9
2018-01-27T19:44:19.191Z,28.3
2018-01-27T19:46:19.305Z,34.4
2018-01-27T19:48:19.037Z,39.7
2018-01-27T19:50:18.790Z,30.5
2018-01-27T19:52:19.558Z,36.2
2018-01-27T19:54:19.310Z,32.1
2018-01-27T19:56:18.907Z,36.6
2018-01-27T19:58:19.690Z,33.8
2018-01-27T20:00:19.432Z,36.8
2018-01-27T20:02:19.159Z,31.1
2018-01-27T20:04:18.921Z,36.3
2018-01-27T20:06:18.957Z,37.5
2018-01-27T20:08:18.683Z,33.3
2018-01-27T20:10:18.883Z,28.6
2018-01-27T20:12:19.608Z,23.4
2018-01-27T20:14:19.326Z,33
2018-01-27T20:16:19.483Z,35.7
2018-01-27T20:18:19.281Z,37.1
2018-01-27T20:20:19.134Z,39.3
2018-01-27T20:22:18.855Z,39.7
2018-01-27T20:24:19.578Z,31.9
2018-01-27T20:26:19.057Z,33.6
2018-01-27T20:28:18.836Z,30.8
2018-01-27T20:30:19.583Z,28.2
2018-01-27T20:32:19.350Z,30.4
2018-01-27T20:34:19.061Z,40
2018-01-27T20:36:19.089Z,34.7
2018-01-27T20:38:18.860Z,43.2
2018-01-27T20:40:19.060Z,35.2
2018-01-27T20:42:18.790Z,40.9
2018-01-27T20:44:19.569Z,26.8
2018-01-27T20:46:19.389Z,34.8
2018-01-27T20:48:19.120Z,35.7
2018-01-27T20:50:18.867Z,33.1
2018-01-27T20:52:19.635Z,27.2
2018-01-27T20:54:19.378Z,34.6
2018-01-27T20:56:19.429Z,37.1
2018-01-27T20:58:19.165Z,40.9
2018-01-27T21:00:18.910Z,33.3
2018-01-27T21:02:19.622Z,39.1
2018-01-27T21:04:19.375Z,29.3
2018-01-27T21:06:19.080Z,36
2018-01-27T21:08:18.836Z,31
2018-01-27T21:10:19.157Z,34
2018-01-27T21:12:18.877Z,36.3
2018-01-27T21:14:19.618Z,39
2018-01-27T21:16:18.713Z,40.7
2018-01-27T21:18:19.512Z,26.9
2018-01-27T21:20:19.254Z,37.7
2018-01-27T21:22:18.956Z,34.9
2018-01-27T21:24:18.699Z,42.6
2018-01-27T21:26:18.745Z,49.9
2018-01-27T21:28:19.519Z,29.2
2018-01-27T21:30:19.304Z,35.6
2018-01-27T21:32:19.049Z,34.3
2018-01-27T21:34:18.802Z,33.2
2018-01-27T21:36:18.817Z,35.3
2018-01-27T21:38:19.585Z,31.5
2018-01-27T21:40:18.801Z,34.9
2018-01-27T21:42:19.512Z,31
2018-01-27T21:44:19.258Z,34.9
2018-01-27T21:46:18.771Z,36.9
2018-01-27T21:48:19.488Z,32.4
2018-01-27T21:50:19.247Z,36.6
2018-01-27T21:52:19.002Z,39.7
2018-01-27T21:54:18.734Z,32.5
2018-01-27T21:56:19.237Z,42.8
2018-01-27T21:58:18.965Z,36.3
2018-01-27T22:00:18.741Z,30.6
2018-01-27T22:02:19.494Z,26.8
2018-01-27T22:04:19.237Z,28.9
2018-01-27T22:06:18.758Z,24
2018-01-27T22:08:19.524Z,25.4
2018-01-27T22:10:18.712Z,38.2
2018-01-27T22:12:19.433Z,27.2
2018-01-27T22:14:19.197Z,36.6
2018-01-27T22:16:18.679Z,30.8
2018-01-27T22:18:19.496Z,35.2
2018-01-27T22:20:19.246Z,30.5
2018-01-27T22:22:18.987Z,27
2018-01-27T22:24:18.727Z,26
2018-01-27T22:26:19.273Z,26.9
2018-01-27T22:28:19.005Z,32.5
2018-01-27T22:30:18.733Z,20.7
2018-01-27T22:32:19.500Z,25.7
2018-01-27T22:34:19.220Z,28.3
2018-01-27T22:36:19.261Z,31.7
2018-01-27T22:38:19.049Z,28.8
2018-01-27T22:40:19.244Z,21.9
2018-01-27T22:42:19.028Z,23.4
2018-01-27T22:44:18.788Z,25.7
2018-01-27T22:46:19.348Z,27.3
2018-01-27T22:48:19.093Z,18
2018-01-27T22:50:18.875Z,23.4
2018-01-27T22:52:19.609Z,33.7
2018-01-27T22:54:19.353Z,24.2
2018-01-27T22:56:19.393Z,25.2
2018-01-27T22:58:19.145Z,29.7
2018-01-27T23:00:18.877Z,19.1
2018-01-27T23:02:19.709Z,26
2018-01-27T23:04:19.452Z,28.5
2018-01-27T23:06:18.961Z,21.4
2018-01-27T23:08:18.727Z,18.8
2018-01-27T23:10:18.961Z,23.3
2018-01-27T23:12:18.688Z,20.6
2018-01-27T23:14:19.424Z,16.7
2018-01-27T23:16:19.532Z,21.8
2018-01-27T23:18:19.320Z,20
2018-01-27T23:20:19.090Z,19.3
2018-01-27T23:22:18.809Z,20.3
2018-01-27T23:24:19.544Z,15
2018-01-27T23:26:18.888Z,15.2
2018-01-27T23:28:19.600Z,9.9
2018-01-27T23:30:19.380Z,15.2
2018-01-27T23:32:19.162Z,17.9
2018-01-27T23:34:18.889Z,14.9
2018-01-27T23:36:18.902Z,16
2018-01-27T23:38:19.671Z,15.7
2018-01-27T23:40:18.890Z,14.7
2018-01-27T23:42:18.672Z,12.9
2018-01-27T23:44:19.424Z,16.1
2018-01-27T23:46:19.541Z,14.8
2018-01-27T23:48:19.264Z,17.9
2018-01-27T23:50:19.007Z,15.6
2018-01-27T23:52:18.725Z,21.2
2018-01-27T23:54:19.439Z,9.1
2018-01-27T23:56:18.930Z,10.3
2018-01-27T23:58:18.673Z,11.9
